Aviation Digital Data Service (ADDS)

Output produced by TAFs form (1418 UTC 31 August 2016)
found at http://aviationweather.gov/adds/tafs/
 
KLND 311123Z 3112/0112 VRB06KT P6SM SCT250 
     FM312100 19008KT P6SM FEW120 SCT250 
     FM010200 24011KT P6SM FEW140 SCT250 
     FM010900 VRB05KT P6SM SCT140 BKN250